createdAt,value
2022-12-05T00:00:54.195Z,25.02
2022-12-05T00:03:20.766Z,18.10
2022-12-05T00:05:47.370Z,26.97
2022-12-05T00:08:14.002Z,25.98
2022-12-05T00:10:40.579Z,26.38
2022-12-05T00:13:07.299Z,9.00
2022-12-05T00:15:38.758Z,13.18
2022-12-05T00:18:05.778Z,13.83
2022-12-05T00:20:32.441Z,21.50
2022-12-05T00:22:58.819Z,17.98
2022-12-05T00:25:25.235Z,21.00
2022-12-05T00:27:51.605Z,25.00
2022-12-05T00:30:18.162Z,20.80
2022-12-05T00:32:44.466Z,26.73
2022-12-05T00:35:10.841Z,15.80
2022-12-05T00:37:37.491Z,25.92
2022-12-05T00:40:04.334Z,16.73
2022-12-05T00:42:30.698Z,22.50
2022-12-05T00:44:56.993Z,10.45
2022-12-05T00:47:23.298Z,26.27
2022-12-05T00:49:49.642Z,18.02
2022-12-05T00:52:15.962Z,20.52
2022-12-05T00:54:42.341Z,22.57
2022-12-05T00:57:08.719Z,11.38
2022-12-05T00:59:35.094Z,21.00
2022-12-05T01:02:01.516Z,23.50
2022-12-05T01:04:27.986Z,25.83
2022-12-05T01:06:56.351Z,23.10
2022-12-05T01:09:23.097Z,21.15
2022-12-05T01:11:50.254Z,26.38
2022-12-05T01:14:18.551Z,25.95
2022-12-05T01:16:47.234Z,24.83
2022-12-05T01:19:17.357Z,12.20
2022-12-05T01:21:44.274Z,19.38
2022-12-05T01:24:11.637Z,25.73
2022-12-05T01:26:38.225Z,23.48
2022-12-05T01:29:04.991Z,18.30
2022-12-05T01:31:33.860Z,21.53
2022-12-05T01:34:02.157Z,27.55
2022-12-05T01:36:29.557Z,19.33
2022-12-05T01:38:56.373Z,23.10
2022-12-05T01:41:26.208Z,27.67
2022-12-05T01:44:00.699Z,23.20
2022-12-05T01:46:29.534Z,27.38
2022-12-05T01:49:19.667Z,21.88
2022-12-05T01:51:50.034Z,26.77
2022-12-05T01:54:18.412Z,23.85
2022-12-05T01:56:52.730Z,20.70
2022-12-05T01:59:21.748Z,20.83
2022-12-05T02:01:48.443Z,23.90
2022-12-05T02:04:15.266Z,13.88
2022-12-05T02:06:42.522Z,18.63
2022-12-05T02:09:08.848Z,15.80
2022-12-05T02:11:41.774Z,26.38
2022-12-05T02:14:23.482Z,25.35
2022-12-05T02:17:14.638Z,16.83
2022-12-05T02:20:10.758Z,26.05
2022-12-05T02:22:55.929Z,20.50
2022-12-05T02:25:50.093Z,17.45
2022-12-05T02:28:53.821Z,17.15
2022-12-05T02:31:53.017Z,13.25
2022-12-05T02:34:29.650Z,25.90
2022-12-05T02:37:03.476Z,16.27
2022-12-05T02:39:35.206Z,20.10
2022-12-05T02:42:05.030Z,21.20
2022-12-05T02:44:34.469Z,20.25
2022-12-05T02:47:01.086Z,23.17
2022-12-05T02:49:31.719Z,18.43
2022-12-05T02:52:00.501Z,24.08
2022-12-05T02:54:31.401Z,20.45
2022-12-05T02:56:59.847Z,24.63
2022-12-05T02:59:26.256Z,18.48
2022-12-05T03:01:52.843Z,23.33
2022-12-05T03:04:22.401Z,20.85
2022-12-05T03:06:53.816Z,21.67
2022-12-05T03:09:32.241Z,20.48
2022-12-05T03:12:06.973Z,18.58
2022-12-05T03:14:41.633Z,19.03
2022-12-05T03:17:14.050Z,23.58
2022-12-05T03:19:46.149Z,18.73
2022-12-05T03:22:27.250Z,22.17
2022-12-05T03:24:54.606Z,21.60
2022-12-05T03:27:47.834Z,23.70
2022-12-05T03:30:18.885Z,14.88
2022-12-05T03:32:51.254Z,16.33
2022-12-05T03:35:23.462Z,15.32
2022-12-05T03:37:56.973Z,16.00
2022-12-05T03:40:32.102Z,12.43
2022-12-05T03:43:20.557Z,20.35
2022-12-05T03:45:55.702Z,19.10
2022-12-05T03:48:27.970Z,19.33
2022-12-05T03:50:56.289Z,18.20
2022-12-05T03:53:27.529Z,21.83
2022-12-05T03:56:12.711Z,15.98
2022-12-05T03:58:46.380Z,15.88
2022-12-05T04:01:15.816Z,19.23
2022-12-05T04:03:50.924Z,18.33
2022-12-05T04:06:24.857Z,20.57
2022-12-05T04:08:54.857Z,17.02
2022-12-05T04:11:25.145Z,17.67
2022-12-05T04:13:54.802Z,15.88
2022-12-05T04:16:50.230Z,17.00
2022-12-05T04:19:24.534Z,18.27
2022-12-05T04:21:54.704Z,9.93
2022-12-05T04:24:47.013Z,14.80
2022-12-05T04:27:30.472Z,16.58
2022-12-05T04:30:08.982Z,15.10
2022-12-05T04:32:59.327Z,16.67
2022-12-05T04:35:30.816Z,18.95
2022-12-05T04:38:04.005Z,12.27
2022-12-05T04:40:48.790Z,20.67
2022-12-05T04:43:17.547Z,10.45
2022-12-05T04:45:45.161Z,14.90
2022-12-05T04:48:16.141Z,15.60
2022-12-05T04:50:46.681Z,18.23
2022-12-05T04:53:14.410Z,17.80
2022-12-05T04:55:46.841Z,16.88
2022-12-05T04:58:18.416Z,13.73
2022-12-05T05:01:19.007Z,19.63
2022-12-05T05:03:54.951Z,19.10
2022-12-05T05:06:21.493Z,14.98
2022-12-05T05:08:54.212Z,17.02
2022-12-05T05:11:27.654Z,17.10
2022-12-05T05:13:54.654Z,18.60
2022-12-05T05:16:24.093Z,16.30
2022-12-05T05:18:51.149Z,17.88
2022-12-05T05:21:29.041Z,15.82
2022-12-05T05:23:56.108Z,15.13
2022-12-05T05:26:24.131Z,16.00
2022-12-05T05:28:51.056Z,20.42
2022-12-05T05:31:18.610Z,15.93
2022-12-05T05:33:48.816Z,12.80
2022-12-05T05:36:15.500Z,19.13
2022-12-05T05:38:45.242Z,18.33
2022-12-05T05:41:17.561Z,18.92
2022-12-05T05:43:44.604Z,15.73
2022-12-05T05:46:12.272Z,15.32
2022-12-05T05:48:39.162Z,18.67
2022-12-05T05:51:08.361Z,18.67
2022-12-05T05:53:34.950Z,20.60
2022-12-05T05:56:05.837Z,20.00
2022-12-05T05:58:32.478Z,22.73
2022-12-05T06:01:05.917Z,14.17
2022-12-05T06:03:32.875Z,9.77
2022-12-05T06:06:01.006Z,18.73
2022-12-05T06:08:30.397Z,14.30
2022-12-05T06:10:57.034Z,15.98
2022-12-05T06:13:23.460Z,16.17
2022-12-05T06:15:49.958Z,19.95
2022-12-05T06:18:16.369Z,20.13
2022-12-05T06:20:42.785Z,16.40
2022-12-05T06:23:09.150Z,22.50
2022-12-05T06:25:35.535Z,15.37
2022-12-05T06:28:01.909Z,12.77
2022-12-05T06:30:28.283Z,18.33
2022-12-05T06:32:54.715Z,22.15
2022-12-05T06:35:21.102Z,21.67
2022-12-05T06:37:47.437Z,15.47
2022-12-05T06:40:14.346Z,17.20
2022-12-05T06:42:40.670Z,14.00
2022-12-05T06:45:07.365Z,20.00
2022-12-05T06:47:33.763Z,15.80
2022-12-05T06:50:00.517Z,18.70
2022-12-05T06:52:27.107Z,17.27
2022-12-05T06:54:53.501Z,18.48
2022-12-05T06:57:19.805Z,17.77
2022-12-05T06:59:46.255Z,19.48
2022-12-05T07:02:13.243Z,21.13
2022-12-05T07:04:39.671Z,19.95
2022-12-05T07:07:06.117Z,19.63
2022-12-05T07:09:51.195Z,16.75
2022-12-05T07:12:19.064Z,16.15
2022-12-05T07:14:48.573Z,23.90
2022-12-05T07:17:15.806Z,13.85
2022-12-05T07:19:42.169Z,19.17
2022-12-05T07:22:15.214Z,16.33
2022-12-05T07:24:42.414Z,15.70
2022-12-05T07:27:08.731Z,17.63
2022-12-05T07:29:35.093Z,19.33
2022-12-05T07:32:01.833Z,21.20
2022-12-05T07:34:28.381Z,17.38
2022-12-05T07:36:54.766Z,17.98
2022-12-05T07:39:21.148Z,18.50
2022-12-05T07:41:47.539Z,22.85
2022-12-05T07:44:13.896Z,18.75
2022-12-05T07:46:40.286Z,18.63
2022-12-05T07:49:07.826Z,19.30
2022-12-05T07:51:35.407Z,19.80
2022-12-05T07:54:02.122Z,20.10
2022-12-05T07:56:28.768Z,15.93
2022-12-05T07:58:56.272Z,21.33
2022-12-05T08:01:25.856Z,17.10
2022-12-05T08:03:54.533Z,14.98
2022-12-05T08:06:24.292Z,8.65
2022-12-05T08:08:51.377Z,9.52
2022-12-05T08:11:24.494Z,21.83
2022-12-05T08:13:51.405Z,10.60
2022-12-05T08:16:21.409Z,16.50
2022-12-05T08:18:48.047Z,16.80
2022-12-05T08:21:17.631Z,13.63
2022-12-05T08:23:45.185Z,16.00
2022-12-05T08:26:20.323Z,13.23
2022-12-05T08:28:47.951Z,14.03
2022-12-05T08:31:16.857Z,16.33
2022-12-05T08:33:44.144Z,16.55
2022-12-05T08:36:13.301Z,15.35
2022-12-05T08:38:40.047Z,16.88
2022-12-05T08:41:09.735Z,12.90
2022-12-05T08:43:36.486Z,19.13
2022-12-05T08:46:04.193Z,20.98
2022-12-05T08:48:32.467Z,16.08
2022-12-05T08:51:00.257Z,18.83
2022-12-05T08:53:26.668Z,19.27
2022-12-05T08:55:52.987Z,16.75
2022-12-05T08:58:19.303Z,13.57
2022-12-05T09:00:45.625Z,11.65
2022-12-05T09:03:12.269Z,13.32
2022-12-05T09:05:39.177Z,15.65
2022-12-05T09:08:05.649Z,13.80
2022-12-05T09:10:32.954Z,15.27
2022-12-05T09:12:59.304Z,15.55
2022-12-05T09:15:26.811Z,13.45
2022-12-05T09:17:53.279Z,13.15
2022-12-05T09:20:19.962Z,12.07
2022-12-05T09:22:46.369Z,11.95
2022-12-05T09:25:12.784Z,12.15
2022-12-05T09:27:39.257Z,9.50
2022-12-05T09:30:06.475Z,9.13
2022-12-05T09:32:32.846Z,11.82
2022-12-05T09:34:59.592Z,8.82
2022-12-05T09:37:41.147Z,7.97
2022-12-05T09:40:15.574Z,9.00
2022-12-05T09:42:56.585Z,9.65
2022-12-05T09:45:29.953Z,9.48
2022-12-05T09:48:07.118Z,9.75
2022-12-05T09:50:42.444Z,6.93
2022-12-05T09:53:27.486Z,6.22
2022-12-05T09:56:12.187Z,7.00
2022-12-05T09:58:56.763Z,7.38
2022-12-05T10:01:39.088Z,6.82
2022-12-05T10:04:30.158Z,6.47
2022-12-05T10:07:17.329Z,4.97
2022-12-05T10:10:19.975Z,5.67
2022-12-05T10:13:22.575Z,7.25
2022-12-05T10:16:03.968Z,5.85
2022-12-05T10:18:48.385Z,7.47
2022-12-05T10:21:20.066Z,6.07
2022-12-05T10:23:58.251Z,9.00
2022-12-05T10:26:29.909Z,6.50
2022-12-05T10:28:59.487Z,7.95
2022-12-05T10:31:29.617Z,6.47
2022-12-05T10:34:19.186Z,7.35
2022-12-05T10:37:10.204Z,7.22
2022-12-05T10:39:37.672Z,6.75
2022-12-05T10:42:05.085Z,6.47
2022-12-05T10:44:33.289Z,5.30
2022-12-05T10:46:59.716Z,4.32
2022-12-05T10:49:27.879Z,4.45
2022-12-05T10:51:54.180Z,2.92
2022-12-05T10:54:24.675Z,6.35
2022-12-05T10:56:52.789Z,2.33
2022-12-05T10:59:44.056Z,3.40
2022-12-05T11:02:25.879Z,4.85
2022-12-05T11:04:53.577Z,2.45
2022-12-05T11:07:32.992Z,2.65
2022-12-05T11:10:02.023Z,2.00
2022-12-05T11:12:39.438Z,3.45
2022-12-05T11:15:25.452Z,2.13
2022-12-05T11:17:54.768Z,4.45
2022-12-05T11:20:21.075Z,2.50
2022-12-05T11:22:52.956Z,1.20
2022-12-05T11:25:30.608Z,2.67
2022-12-05T11:28:21.219Z,2.27
2022-12-05T11:31:01.359Z,3.55
2022-12-05T11:33:30.763Z,3.95
2022-12-05T11:36:04.507Z,1.80
2022-12-05T11:38:32.713Z,2.22
2022-12-05T11:41:31.677Z,2.03
2022-12-05T11:44:17.456Z,2.45
2022-12-05T11:47:02.236Z,1.83
2022-12-05T11:49:53.326Z,3.45
2022-12-05T11:52:53.686Z,6.05
2022-12-05T11:55:24.740Z,2.78
2022-12-05T11:58:13.569Z,2.92
2022-12-05T12:01:18.366Z,2.75
2022-12-05T12:04:18.106Z,2.92
2022-12-05T12:07:10.864Z,2.50
2022-12-05T12:10:10.041Z,4.35
2022-12-05T12:13:02.014Z,2.95
2022-12-05T12:15:41.106Z,3.55
2022-12-05T12:18:38.761Z,1.98
2022-12-05T12:21:27.209Z,2.63
2022-12-05T12:24:14.889Z,2.10
2022-12-05T12:26:48.745Z,7.47
2022-12-05T12:29:35.522Z,3.03
2022-12-05T12:32:17.257Z,2.60
2022-12-05T12:35:17.579Z,2.40
2022-12-05T12:38:19.381Z,2.03
2022-12-05T12:40:53.418Z,1.35
2022-12-05T12:43:54.869Z,3.25
2022-12-05T12:46:27.528Z,5.43
2022-12-05T12:49:23.049Z,1.92
2022-12-05T12:51:54.980Z,3.45
2022-12-05T12:55:02.720Z,1.85
2022-12-05T12:57:37.842Z,0.82
2022-12-05T13:00:26.286Z,1.20
2022-12-05T13:03:24.838Z,1.27
2022-12-05T13:05:59.701Z,3.53
2022-12-05T13:08:45.244Z,1.63
2022-12-05T13:11:14.528Z,1.52
2022-12-05T13:13:47.238Z,1.40
2022-12-05T13:16:23.784Z,2.72
2022-12-05T13:18:50.172Z,1.37
2022-12-05T13:21:17.443Z,3.33
2022-12-05T13:23:49.815Z,2.55
2022-12-05T13:26:17.699Z,2.20
2022-12-05T13:28:57.724Z,3.85
2022-12-05T13:31:45.459Z,1.90
2022-12-05T13:34:35.195Z,2.72
2022-12-05T13:37:30.192Z,1.25
2022-12-05T13:40:17.172Z,2.63
2022-12-05T13:42:44.357Z,3.05
2022-12-05T13:45:18.366Z,2.25
2022-12-05T13:47:59.592Z,2.67
2022-12-05T13:50:40.982Z,2.10
2022-12-05T13:53:25.701Z,2.75
2022-12-05T13:56:15.420Z,2.42
2022-12-05T13:58:52.049Z,5.07
2022-12-05T14:01:51.923Z,3.47
2022-12-05T14:04:45.614Z,2.80
2022-12-05T14:07:12.411Z,2.40
2022-12-05T14:09:55.018Z,2.40
2022-12-05T14:12:21.273Z,3.03
2022-12-05T14:14:56.968Z,3.28
2022-12-05T14:17:32.039Z,2.08
2022-12-05T14:20:26.602Z,0.80
2022-12-05T14:23:07.999Z,1.70
2022-12-05T14:26:02.086Z,2.88
2022-12-05T14:28:46.913Z,2.83
2022-12-05T14:31:59.651Z,5.03
2022-12-05T14:34:33.178Z,1.80
2022-12-05T14:37:01.526Z,2.45
2022-12-05T14:39:41.582Z,3.47
2022-12-05T14:43:01.522Z,2.65
2022-12-05T14:45:40.442Z,2.75
2022-12-05T14:48:29.352Z,1.55
2022-12-05T14:50:57.398Z,1.77
2022-12-05T14:53:40.552Z,1.93
2022-12-05T14:56:25.435Z,2.90
2022-12-05T14:58:59.781Z,2.53
2022-12-05T15:01:35.387Z,1.77
2022-12-05T15:04:09.255Z,2.63
2022-12-05T15:06:45.847Z,2.50
2022-12-05T15:09:37.115Z,3.15
2022-12-05T15:12:09.715Z,3.88
2022-12-05T15:15:02.664Z,8.52
2022-12-05T15:17:37.876Z,2.97
2022-12-05T15:20:15.318Z,3.53
2022-12-05T15:22:42.333Z,2.55
2022-12-05T15:25:22.301Z,4.43
2022-12-05T15:27:58.009Z,4.57
2022-12-05T15:30:24.569Z,3.58
2022-12-05T15:32:54.839Z,2.93
2022-12-05T15:35:27.336Z,2.58
2022-12-05T15:38:01.258Z,3.25
2022-12-05T15:40:37.171Z,3.20
2022-12-05T15:43:26.272Z,2.38
2022-12-05T15:46:07.089Z,3.80
2022-12-05T15:48:34.275Z,1.65
2022-12-05T15:51:01.746Z,4.00
2022-12-05T15:53:39.806Z,4.07
2022-12-05T15:56:15.422Z,5.20
2022-12-05T15:58:59.694Z,3.60
2022-12-05T16:01:26.709Z,2.70
2022-12-05T16:04:29.528Z,3.25
2022-12-05T16:07:00.377Z,4.70
2022-12-05T16:09:31.912Z,5.10
2022-12-05T16:12:03.852Z,4.73
2022-12-05T16:14:59.088Z,2.40
2022-12-05T16:17:21.941Z,3.10
2022-12-05T16:19:48.877Z,4.68
2022-12-05T16:22:24.407Z,3.72
2022-12-05T16:24:55.239Z,2.17
2022-12-05T16:27:25.057Z,3.35
2022-12-05T16:30:16.521Z,1.92
2022-12-05T16:32:44.365Z,3.13
2022-12-05T16:35:31.395Z,4.47
2022-12-05T16:38:13.033Z,3.37
2022-12-05T16:40:50.230Z,2.05
2022-12-05T16:43:22.706Z,2.50
2022-12-05T16:45:50.225Z,4.35
2022-12-05T16:48:26.126Z,3.97
2022-12-05T16:51:12.706Z,3.53
2022-12-05T16:53:46.475Z,1.50
2022-12-05T16:56:16.830Z,2.08
2022-12-05T16:58:43.273Z,2.63
2022-12-05T17:01:21.672Z,3.72
2022-12-05T17:03:48.694Z,2.55
2022-12-05T17:06:15.498Z,2.78
2022-12-05T17:08:42.791Z,2.22
2022-12-05T17:11:16.653Z,2.42
2022-12-05T17:13:45.057Z,3.08
2022-12-05T17:16:12.030Z,2.67
2022-12-05T17:18:38.569Z,2.85
2022-12-05T17:21:05.224Z,3.03
2022-12-05T17:23:31.825Z,3.55
2022-12-05T17:25:58.898Z,3.67
2022-12-05T17:28:25.561Z,2.17
2022-12-05T17:30:51.997Z,2.78
2022-12-05T17:33:19.692Z,2.58
2022-12-05T17:35:46.641Z,2.63
2022-12-05T17:38:13.301Z,2.25
2022-12-05T17:40:40.369Z,4.23
2022-12-05T17:43:07.061Z,2.47
2022-12-05T17:45:33.560Z,1.95
2022-12-05T17:47:59.947Z,2.50
2022-12-05T17:50:27.125Z,2.17
2022-12-05T17:52:56.053Z,2.80
2022-12-05T17:55:26.382Z,2.28
2022-12-05T17:57:54.119Z,4.53
2022-12-05T18:00:22.725Z,3.55
2022-12-05T18:02:49.926Z,2.88
2022-12-05T18:05:16.690Z,2.17
2022-12-05T18:07:44.644Z,1.90
2022-12-05T18:10:13.921Z,4.03
2022-12-05T18:12:40.968Z,2.25
2022-12-05T18:15:08.476Z,3.20
2022-12-05T18:17:35.386Z,4.27
2022-12-05T18:20:01.898Z,3.60
2022-12-05T18:22:28.410Z,3.10
2022-12-05T18:24:55.385Z,4.40
2022-12-05T18:27:21.915Z,4.35
2022-12-05T18:29:49.186Z,3.70
2022-12-05T18:32:16.346Z,2.25
2022-12-05T18:34:42.733Z,3.92
2022-12-05T18:37:10.446Z,2.25
2022-12-05T18:39:39.789Z,1.73
2022-12-05T18:42:11.735Z,2.95
2022-12-05T18:44:41.307Z,2.80
2022-12-05T18:47:07.653Z,5.72
2022-12-05T18:49:34.105Z,1.83
2022-12-05T18:52:00.445Z,1.90
2022-12-05T18:54:26.816Z,2.90
2022-12-05T18:56:53.247Z,2.20
2022-12-05T18:59:21.673Z,2.60
2022-12-05T19:01:49.071Z,2.03
2022-12-05T19:04:18.381Z,1.65
2022-12-05T19:06:54.156Z,1.43
2022-12-05T19:09:22.658Z,3.63
2022-12-05T19:11:51.105Z,1.90
2022-12-05T19:14:19.293Z,2.10
2022-12-05T19:16:48.547Z,4.13
2022-12-05T19:19:15.526Z,3.30
2022-12-05T19:21:42.322Z,4.32
2022-12-05T19:24:10.963Z,1.70
2022-12-05T19:26:37.562Z,2.28
2022-12-05T19:29:04.625Z,2.10
2022-12-05T19:31:31.651Z,1.98
2022-12-05T19:34:02.914Z,2.25
2022-12-05T19:36:38.119Z,3.58
2022-12-05T19:39:16.853Z,2.08
2022-12-05T19:41:43.557Z,2.65
2022-12-05T19:44:10.548Z,1.83
2022-12-05T19:46:37.472Z,3.00
2022-12-05T19:49:06.648Z,2.28
2022-12-05T19:51:33.836Z,3.13
2022-12-05T19:54:01.884Z,2.55
2022-12-05T19:56:30.550Z,2.17
2022-12-05T19:58:58.816Z,3.42
2022-12-05T20:01:37.014Z,3.38
2022-12-05T20:04:06.838Z,3.95
2022-12-05T20:06:41.630Z,2.72
2022-12-05T20:09:09.751Z,3.25
2022-12-05T20:11:39.100Z,3.20
2022-12-05T20:14:06.113Z,4.60
2022-12-05T20:16:33.752Z,3.60
2022-12-05T20:19:00.391Z,2.65
2022-12-05T20:21:29.107Z,2.67
2022-12-05T20:23:56.443Z,2.40
2022-12-05T20:26:28.492Z,3.35
2022-12-05T20:28:58.096Z,3.35
2022-12-05T20:31:33.202Z,2.15
2022-12-05T20:34:00.455Z,3.83
2022-12-05T20:36:30.184Z,2.13
2022-12-05T20:38:59.669Z,2.35
2022-12-05T20:41:26.458Z,5.93
2022-12-05T20:43:55.932Z,4.10
2022-12-05T20:46:23.373Z,2.92
2022-12-05T20:48:51.277Z,2.92
2022-12-05T20:51:23.201Z,3.58
2022-12-05T20:53:49.857Z,2.33
2022-12-05T20:56:22.090Z,3.35
2022-12-05T20:58:50.499Z,2.00
2022-12-05T21:01:18.892Z,2.65
2022-12-05T21:03:47.742Z,1.80
2022-12-05T21:06:16.463Z,3.30
2022-12-05T21:08:43.023Z,2.03
2022-12-05T21:11:11.242Z,2.00
2022-12-05T21:13:38.418Z,1.95
2022-12-05T21:16:07.932Z,1.98
2022-12-05T21:18:34.904Z,2.08
2022-12-05T21:21:04.041Z,2.28
2022-12-05T21:23:30.843Z,2.83
2022-12-05T21:26:01.951Z,4.20
2022-12-05T21:28:30.835Z,2.30
2022-12-05T21:31:17.283Z,1.85
2022-12-05T21:33:49.061Z,3.08
2022-12-05T21:36:15.646Z,2.47
2022-12-05T21:38:42.063Z,1.85
2022-12-05T21:41:08.505Z,1.95
2022-12-05T21:43:36.034Z,5.22
2022-12-05T21:46:02.887Z,3.33
2022-12-05T21:48:29.288Z,2.70
2022-12-05T21:50:56.221Z,1.77
2022-12-05T21:53:22.754Z,1.98
2022-12-05T21:55:58.559Z,2.45
2022-12-05T21:58:24.865Z,3.58
2022-12-05T22:00:51.154Z,2.03
2022-12-05T22:03:17.505Z,1.73
2022-12-05T22:05:43.889Z,2.13
2022-12-05T22:08:10.597Z,2.58
2022-12-05T22:10:37.658Z,1.38
2022-12-05T22:13:04.533Z,1.83
2022-12-05T22:15:31.282Z,2.00
2022-12-05T22:17:57.729Z,5.20
2022-12-05T22:20:24.364Z,1.58
2022-12-05T22:22:50.902Z,1.92
2022-12-05T22:25:17.267Z,5.70
2022-12-05T22:27:43.650Z,2.72
2022-12-05T22:30:10.263Z,2.05
2022-12-05T22:32:36.616Z,1.92
2022-12-05T22:35:04.263Z,2.30
2022-12-05T22:37:31.160Z,2.47
2022-12-05T22:39:57.823Z,1.40
2022-12-05T22:42:26.305Z,1.73
2022-12-05T22:44:52.659Z,1.73
2022-12-05T22:47:18.983Z,2.95
2022-12-05T22:49:45.275Z,2.25
2022-12-05T22:52:11.638Z,2.92
2022-12-05T22:54:38.006Z,1.95
2022-12-05T22:57:04.402Z,3.05
2022-12-05T22:59:30.725Z,3.63
2022-12-05T23:01:57.182Z,4.93
2022-12-05T23:04:23.988Z,2.13
2022-12-05T23:06:50.410Z,2.25
2022-12-05T23:09:16.876Z,1.88
2022-12-05T23:11:43.267Z,3.42
2022-12-05T23:14:09.678Z,3.33
2022-12-05T23:16:36.263Z,1.88
2022-12-05T23:19:05.224Z,3.30
2022-12-05T23:21:34.638Z,2.08
2022-12-05T23:24:03.571Z,2.28
2022-12-05T23:26:33.380Z,1.63
2022-12-05T23:28:59.876Z,2.35
2022-12-05T23:31:26.430Z,1.83
2022-12-05T23:33:53.571Z,2.72
2022-12-05T23:36:20.878Z,4.90
2022-12-05T23:38:47.554Z,2.83
2022-12-05T23:41:16.851Z,2.92
2022-12-05T23:43:43.895Z,1.45
2022-12-05T23:46:12.590Z,3.88
2022-12-05T23:48:39.669Z,2.40
2022-12-05T23:51:12.885Z,6.37
2022-12-05T23:53:41.280Z,3.35
2022-12-05T23:56:14.227Z,4.05
2022-12-05T23:58:40.998Z,4.28
